Time;durP1;ratioP1;P1;durP2;ratioP2;P2;SDS_P1;SDS_P2;PMS_P1;PMS_P2;Temp;Humidity;BMP_temperature;BMP_pressure;BME280_temperature;BME280_humidity;BME280_pressure;Samples;Min_cycle;Max_cycle;Signal;HPM_P1;HPM_P2
2024/02/11 00:02:42;;;;;;;10.48;5.75;;;;;;;;;;6203305;28;20778;-83
2024/02/11 00:05:44;;;;;;;10.90;5.93;;;;;;;;;;6215245;28;20068;-82
2024/02/11 00:08:49;;;;;;;12.05;5.68;;;;;;;;;;6214069;28;20050;-81
2024/02/11 00:11:51;;;;;;;8.30;5.82;;;;;;;;;;6200684;28;20046;-83
2024/02/11 00:14:53;;;;;;;10.57;5.95;;;;;;;;;;6209166;28;20041;-81
2024/02/11 00:17:54;;;;;;;10.05;6.40;;;;;;;;;;6207263;28;20042;-80
2024/02/11 00:20:56;;;;;;;12.52;5.97;;;;;;;;;;6213606;28;20075;-81
2024/02/11 00:23:59;;;;;;;9.30;5.60;;;;;;;;;;6215157;28;20419;-82
2024/02/11 00:27:01;;;;;;;13.67;6.37;;;;;;;;;;6216014;28;20049;-83
2024/02/11 00:30:04;;;;;;;8.98;5.32;;;;;;;;;;6223622;28;20435;-83
2024/02/11 00:33:06;;;;;;;8.55;5.68;;;;;;;;;;6211573;28;20046;-83
2024/02/11 00:36:08;;;;;;;8.60;5.72;;;;;;;;;;6226777;28;20045;-82
2024/02/11 00:39:10;;;;;;;11.77;6.13;;;;;;;;;;6222981;28;20050;-83
2024/02/11 00:42:17;;;;;;;8.68;5.07;;;;;;;;;;6203781;28;20046;-81
2024/02/11 00:45:18;;;;;;;8.60;5.13;;;;;;;;;;6210194;28;20088;-83
2024/02/11 00:48:22;;;;;;;11.43;5.15;;;;;;;;;;6207993;28;20053;-83
2024/02/11 00:51:27;;;;;;;10.15;5.63;;;;;;;;;;6205180;28;20050;-82
2024/02/11 00:54:28;;;;;;;9.15;5.65;;;;;;;;;;6218161;28;20042;-82
2024/02/11 00:57:30;;;;;;;8.20;5.00;;;;;;;;;;6208422;28;20043;-84
2024/02/11 01:00:33;;;;;;;8.77;5.60;;;;;;;;;;6225079;28;20060;-82
2024/02/11 01:03:35;;;;;;;9.57;5.53;;;;;;;;;;6204310;28;20064;-83
2024/02/11 01:06:37;;;;;;;7.28;4.63;;;;;;;;;;6226425;28;20050;-81
2024/02/11 01:09:39;;;;;;;10.20;6.05;;;;;;;;;;6212150;28;20052;-83
2024/02/11 01:12:42;;;;;;;10.50;5.80;;;;;;;;;;6204066;28;20041;-79
2024/02/11 01:15:43;;;;;;;11.73;6.05;;;;;;;;;;6195748;28;20057;-84
2024/02/11 01:18:45;;;;;;;11.52;5.55;;;;;;;;;;6189746;28;20658;-83
2024/02/11 01:21:48;;;;;;;9.27;5.85;;;;;;;;;;6193253;28;20523;-80
2024/02/11 01:24:50;;;;;;;10.88;5.55;;;;;;;;;;6209400;28;20140;-82
2024/02/11 01:27:51;;;;;;;11.07;5.20;;;;;;;;;;6208326;28;20046;-83
2024/02/11 01:30:53;;;;;;;9.00;5.68;;;;;;;;;;6208910;28;20053;-84
2024/02/11 01:33:55;;;;;;;9.85;5.80;;;;;;;;;;6227008;28;20049;-83
2024/02/11 01:36:56;;;;;;;8.13;5.15;;;;;;;;;;6210675;28;20042;-83
2024/02/11 01:39:58;;;;;;;7.55;5.25;;;;;;;;;;6199428;28;20052;-82
2024/02/11 01:43:05;;;;;;;8.80;4.97;;;;;;;;;;6202733;28;20046;-82
2024/02/11 01:46:07;;;;;;;11.65;5.43;;;;;;;;;;6202415;28;20038;-79
2024/02/11 01:49:10;;;;;;;10.50;5.95;;;;;;;;;;6207160;28;20061;-83
2024/02/11 01:52:15;;;;;;;10.27;5.55;;;;;;;;;;6205915;28;20061;-81
2024/02/11 01:55:18;;;;;;;9.90;5.53;;;;;;;;;;6223819;28;20050;-79
2024/02/11 01:58:21;;;;;;;8.27;5.68;;;;;;;;;;6238377;28;20042;-79
2024/02/11 02:01:25;;;;;;;8.13;5.22;;;;;;;;;;6204235;28;20125;-82
2024/02/11 02:04:28;;;;;;;9.73;5.93;;;;;;;;;;6214372;28;20567;-79
2024/02/11 02:07:30;;;;;;;9.70;5.77;;;;;;;;;;6228886;28;20054;-79
2024/02/11 02:10:32;;;;;;;10.50;6.50;;;;;;;;;;6211736;28;20109;-78
2024/02/11 02:13:34;;;;;;;10.77;6.68;;;;;;;;;;6212158;28;20125;-81
2024/02/11 02:16:35;;;;;;;7.82;4.97;;;;;;;;;;6207491;28;20042;-81
2024/02/11 02:19:37;;;;;;;8.50;4.57;;;;;;;;;;6225700;28;20192;-83
2024/02/11 02:22:41;;;;;;;9.38;4.53;;;;;;;;;;6209916;28;20072;-83
2024/02/11 02:25:43;;;;;;;9.98;5.20;;;;;;;;;;6184432;28;20039;-82
2024/02/11 02:28:45;;;;;;;7.88;5.45;;;;;;;;;;6205836;28;20108;-82
2024/02/11 02:31:48;;;;;;;7.45;5.03;;;;;;;;;;6204401;28;20061;-82
2024/02/11 02:34:50;;;;;;;6.13;4.18;;;;;;;;;;6194964;28;20463;-81
2024/02/11 02:37:53;;;;;;;9.65;4.88;;;;;;;;;;6206055;28;20049;-81
2024/02/11 02:40:55;;;;;;;9.13;5.10;;;;;;;;;;6202811;28;20045;-81
2024/02/11 02:43:57;;;;;;;8.43;5.47;;;;;;;;;;6203461;28;20045;-81
2024/02/11 02:46:58;;;;;;;11.88;6.07;;;;;;;;;;6219326;28;20156;-82
2024/02/11 02:50:03;;;;;;;7.63;5.07;;;;;;;;;;6211973;28;20439;-83
2024/02/11 02:53:08;;;;;;;10.50;5.60;;;;;;;;;;6191103;28;20432;-80
2024/02/11 02:56:11;;;;;;;10.40;5.38;;;;;;;;;;6196135;28;20057;-83
2024/02/11 02:59:13;;;;;;;10.23;6.20;;;;;;;;;;6203094;28;20693;-83
2024/02/11 03:02:14;;;;;;;10.40;5.68;;;;;;;;;;6209759;28;20073;-83
2024/02/11 03:05:16;;;;;;;8.98;4.80;;;;;;;;;;6197749;28;20284;-79
2024/02/11 03:08:18;;;;;;;7.05;4.40;;;;;;;;;;6218863;28;20050;-80
2024/02/11 03:11:21;;;;;;;9.13;4.55;;;;;;;;;;6215463;28;20049;-83
2024/02/11 03:14:23;;;;;;;11.98;5.20;;;;;;;;;;6210489;28;20044;-83
2024/02/11 03:17:25;;;;;;;7.85;4.80;;;;;;;;;;6204171;28;20545;-81
2024/02/11 03:20:27;;;;;;;7.70;4.63;;;;;;;;;;6226420;28;20056;-82
2024/02/11 03:23:29;;;;;;;8.88;4.65;;;;;;;;;;6197855;28;20582;-82
2024/02/11 03:26:31;;;;;;;7.60;4.20;;;;;;;;;;6205275;28;20037;-83
2024/02/11 03:29:33;;;;;;;8.48;4.60;;;;;;;;;;6211588;28;20046;-80
2024/02/11 03:32:35;;;;;;;6.55;4.20;;;;;;;;;;6204602;28;20030;-79
2024/02/11 03:35:37;;;;;;;9.10;5.00;;;;;;;;;;6226990;28;20054;-79
2024/02/11 03:38:43;;;;;;;8.85;4.88;;;;;;;;;;6243724;28;20050;-79
2024/02/11 03:41:44;;;;;;;8.30;4.68;;;;;;;;;;6241774;28;20053;-80
2024/02/11 03:44:46;;;;;;;7.97;4.65;;;;;;;;;;6234038;28;20046;-79
2024/02/11 03:47:48;;;;;;;5.60;3.78;;;;;;;;;;6236612;28;20090;-80
2024/02/11 03:50:50;;;;;;;7.95;4.22;;;;;;;;;;6246871;28;20061;-78
2024/02/11 03:53:51;;;;;;;6.25;4.00;;;;;;;;;;6224138;28;20046;-78
2024/02/11 03:56:53;;;;;;;6.43;4.40;;;;;;;;;;6227640;28;20037;-79
2024/02/11 03:59:55;;;;;;;5.85;3.97;;;;;;;;;;6231274;28;20029;-80
2024/02/11 04:02:58;;;;;;;7.20;4.28;;;;;;;;;;6220865;28;20046;-79
2024/02/11 04:06:01;;;;;;;6.47;3.95;;;;;;;;;;6233327;28;20069;-76
2024/02/11 04:09:03;;;;;;;5.63;3.70;;;;;;;;;;6232614;28;20121;-78
2024/02/11 04:12:07;;;;;;;7.95;4.20;;;;;;;;;;6231858;28;20037;-78
2024/02/11 04:15:15;;;;;;;7.03;3.70;;;;;;;;;;6239749;28;20366;-76
2024/02/11 04:18:21;;;;;;;8.02;4.00;;;;;;;;;;6237264;28;20193;-78
2024/02/11 04:21:23;;;;;;;7.55;4.70;;;;;;;;;;6236063;28;20053;-77
2024/02/11 04:24:28;;;;;;;7.80;4.15;;;;;;;;;;6233093;28;20065;-80
2024/02/11 04:27:30;;;;;;;8.38;4.03;;;;;;;;;;6225139;28;20038;-79
2024/02/11 04:30:31;;;;;;;16.42;8.00;;;;;;;;;;6222747;28;20053;-80
2024/02/11 04:33:33;;;;;;;8.18;4.35;;;;;;;;;;6221172;28;20046;-83
2024/02/11 04:36:36;;;;;;;6.70;3.63;;;;;;;;;;6220817;28;20623;-82
2024/02/11 04:39:38;;;;;;;27.02;12.63;;;;;;;;;;6225428;28;20622;-82
2024/02/11 04:42:41;;;;;;;13.38;6.82;;;;;;;;;;6214159;28;20065;-81
2024/02/11 04:45:43;;;;;;;8.85;5.00;;;;;;;;;;6215760;28;20056;-82
2024/02/11 04:48:45;;;;;;;10.57;5.65;;;;;;;;;;6211860;28;20136;-81
2024/02/11 04:51:48;;;;;;;11.48;5.85;;;;;;;;;;6223961;28;20053;-81
2024/02/11 04:54:50;;;;;;;6.60;4.07;;;;;;;;;;6203030;28;20057;-80
2024/02/11 04:57:52;;;;;;;9.45;5.43;;;;;;;;;;6205308;28;20050;-82
2024/02/11 05:00:54;;;;;;;10.13;5.18;;;;;;;;;;6211459;28;20372;-82
2024/02/11 05:03:56;;;;;;;9.60;6.53;;;;;;;;;;6210377;28;20056;-83
2024/02/11 05:06:58;;;;;;;9.90;5.07;;;;;;;;;;6208884;28;20038;-80
2024/02/11 05:10:00;;;;;;;7.38;5.18;;;;;;;;;;6209938;28;20042;-80
2024/02/11 05:13:04;;;;;;;9.80;5.65;;;;;;;;;;6208639;28;20057;-80
2024/02/11 05:16:07;;;;;;;12.48;6.03;;;;;;;;;;6211169;28;20050;-85
2024/02/11 05:19:09;;;;;;;8.67;4.77;;;;;;;;;;6206090;28;20109;-78
2024/02/11 05:22:11;;;;;;;9.98;5.40;;;;;;;;;;6209991;28;21004;-79
2024/02/11 05:25:19;;;;;;;9.05;4.85;;;;;;;;;;6210351;28;20053;-83
2024/02/11 05:28:20;;;;;;;9.80;5.40;;;;;;;;;;6221652;28;20137;-81
2024/02/11 05:31:22;;;;;;;14.02;6.38;;;;;;;;;;6206458;28;20056;-81
2024/02/11 05:34:24;;;;;;;13.35;6.85;;;;;;;;;;6207153;28;20412;-79
2024/02/11 05:37:26;;;;;;;17.95;9.52;;;;;;;;;;6205542;28;20639;-82
2024/02/11 05:40:32;;;;;;;23.80;11.15;;;;;;;;;;6208950;28;20053;-80
2024/02/11 05:43:35;;;;;;;23.83;10.98;;;;;;;;;;6222157;28;20327;-82
2024/02/11 05:46:37;;;;;;;;;;;;;;;;;;6206229;28;20089;-80
2024/02/11 05:49:39;;;;;;;20.60;10.10;;;;;;;;;;6208885;28;20327;-80
2024/02/11 05:52:40;;;;;;;22.95;10.60;;;;;;;;;;6207976;28;20176;-78
2024/02/11 05:55:42;;;;;;;19.55;9.38;;;;;;;;;;6206597;28;20045;-81
2024/02/11 05:58:45;;;;;;;13.90;7.68;;;;;;;;;;6207634;28;20045;-83
2024/02/11 06:01:48;;;;;;;12.93;7.90;;;;;;;;;;6204571;28;20044;-82
2024/02/11 06:04:52;;;;;;;10.57;6.82;;;;;;;;;;6187884;28;20050;-79
2024/02/11 06:07:59;;;;;;;11.80;5.95;;;;;;;;;;6206697;28;20042;-81
2024/02/11 06:11:03;;;;;;;7.25;4.75;;;;;;;;;;6205432;28;20054;-79
2024/02/11 06:14:05;;;;;;;4.50;3.30;;;;;;;;;;6188520;28;20050;-78
2024/02/11 06:17:08;;;;;;;5.53;3.28;;;;;;;;;;6204243;28;20061;-80
2024/02/11 06:20:13;;;;;;;3.97;3.08;;;;;;;;;;6221501;28;20041;-81
2024/02/11 06:23:16;;;;;;;4.00;3.00;;;;;;;;;;6202651;28;20500;-83
2024/02/11 06:26:17;;;;;;;3.17;2.10;;;;;;;;;;6188581;28;20077;-83
2024/02/11 06:29:19;;;;;;;3.42;1.50;;;;;;;;;;6191089;28;20057;-78
2024/02/11 06:32:21;;;;;;;1.38;1.20;;;;;;;;;;6224646;28;20049;-77
2024/02/11 06:35:23;;;;;;;1.83;0.95;;;;;;;;;;6231182;28;20080;-81
2024/02/11 06:38:27;;;;;;;2.28;0.85;;;;;;;;;;6203757;28;20054;-81
2024/02/11 06:41:32;;;;;;;0.60;0.60;;;;;;;;;;6183252;28;20282;-81
2024/02/11 06:44:33;;;;;;;0.55;0.50;;;;;;;;;;6200992;28;20046;-81
2024/02/11 06:47:36;;;;;;;0.93;0.50;;;;;;;;;;6217790;28;20061;-78
2024/02/11 06:50:38;;;;;;;0.60;0.60;;;;;;;;;;6227338;28;20038;-80
2024/02/11 06:53:41;;;;;;;0.60;0.52;;;;;;;;;;6220609;28;20049;-80
2024/02/11 06:56:44;;;;;;;0.30;0.30;;;;;;;;;;6228372;28;20041;-81
2024/02/11 06:59:47;;;;;;;1.75;0.50;;;;;;;;;;6201883;28;20046;-83
2024/02/11 07:02:52;;;;;;;0.43;0.40;;;;;;;;;;6188273;28;20572;-84
2024/02/11 07:05:56;;;;;;;1.58;0.60;;;;;;;;;;6205995;28;20054;-83
2024/02/11 07:08:57;;;;;;;1.35;0.70;;;;;;;;;;6210632;28;20127;-83
2024/02/11 07:12:00;;;;;;;1.50;1.00;;;;;;;;;;6204651;28;20042;-84
2024/02/11 07:15:05;;;;;;;1.77;1.25;;;;;;;;;;6207651;28;20133;-84
2024/02/11 07:18:08;;;;;;;1.50;1.30;;;;;;;;;;6201935;28;20054;-83
2024/02/11 07:21:12;;;;;;;1.40;1.30;;;;;;;;;;6179684;28;20535;-85
2024/02/11 07:24:16;;;;;;;1.20;1.10;;;;;;;;;;6190730;28;20054;-86
2024/02/11 07:27:17;;;;;;;3.22;1.40;;;;;;;;;;6204564;28;20540;-84
2024/02/11 07:30:19;;;;;;;2.58;1.50;;;;;;;;;;6199353;28;20087;-85
2024/02/11 07:33:21;;;;;;;1.63;1.20;;;;;;;;;;6208465;28;20051;-84
2024/02/11 07:36:23;;;;;;;2.58;1.40;;;;;;;;;;6206385;28;20042;-83
2024/02/11 07:39:25;;;;;;;1.67;1.30;;;;;;;;;;6217407;28;20069;-83
2024/02/11 07:42:30;;;;;;;1.58;1.40;;;;;;;;;;6178668;28;20142;-81
2024/02/11 07:45:32;;;;;;;2.08;1.40;;;;;;;;;;6189709;28;20054;-82
2024/02/11 07:48:33;;;;;;;2.25;1.45;;;;;;;;;;6193354;28;20041;-82
2024/02/11 07:51:36;;;;;;;2.97;1.77;;;;;;;;;;6198842;28;20052;-83
2024/02/11 07:54:38;;;;;;;1.95;1.67;;;;;;;;;;6215147;28;20042;-82
2024/02/11 07:57:40;;;;;;;1.90;1.70;;;;;;;;;;6199036;28;20632;-81
2024/02/11 08:00:41;;;;;;;1.88;1.67;;;;;;;;;;6213754;28;20061;-84
2024/02/11 08:03:43;;;;;;;2.47;2.00;;;;;;;;;;6201539;28;20037;-77
2024/02/11 08:06:45;;;;;;;2.30;1.60;;;;;;;;;;6206642;28;20073;-78
2024/02/11 08:09:47;;;;;;;2.58;1.75;;;;;;;;;;6228173;28;20046;-79
2024/02/11 08:12:50;;;;;;;2.15;1.90;;;;;;;;;;6203521;28;20061;-81
2024/02/11 08:15:53;;;;;;;2.17;1.98;;;;;;;;;;6199662;28;20615;-81
2024/02/11 08:18:54;;;;;;;2.30;1.90;;;;;;;;;;6193063;28;20098;-81
2024/02/11 08:21:57;;;;;;;2.20;1.90;;;;;;;;;;6202535;28;20075;-80
2024/02/11 08:24:59;;;;;;;2.28;1.92;;;;;;;;;;6200094;28;20058;-80
2024/02/11 08:28:01;;;;;;;2.53;1.85;;;;;;;;;;6215806;28;20052;-80
2024/02/11 08:31:04;;;;;;;3.42;2.15;;;;;;;;;;6221280;28;20046;-80
2024/02/11 08:34:05;;;;;;;2.70;2.08;;;;;;;;;;6207159;28;20045;-80
2024/02/11 08:37:08;;;;;;;2.92;2.17;;;;;;;;;;6212750;28;20058;-79
2024/02/11 08:40:12;;;;;;;2.20;1.92;;;;;;;;;;6213247;28;20053;-79
2024/02/11 08:43:14;;;;;;;3.13;2.10;;;;;;;;;;6211585;28;21197;-81
2024/02/11 08:46:16;;;;;;;3.55;2.30;;;;;;;;;;6236316;28;20050;-80
2024/02/11 08:49:17;;;;;;;3.03;1.98;;;;;;;;;;6220562;28;20050;-81
2024/02/11 08:52:19;;;;;;;2.83;2.22;;;;;;;;;;6212118;28;20485;-81
2024/02/11 08:55:21;;;;;;;2.83;2.10;;;;;;;;;;6208143;28;20043;-82
2024/02/11 08:58:27;;;;;;;5.50;2.25;;;;;;;;;;6205159;28;20505;-82
2024/02/11 09:01:30;;;;;;;2.53;2.10;;;;;;;;;;6210058;28;20113;-82
2024/02/11 09:04:32;;;;;;;2.95;2.50;;;;;;;;;;6215295;28;20042;-83
2024/02/11 09:07:34;;;;;;;3.63;2.53;;;;;;;;;;6194494;28;20045;-82
2024/02/11 09:10:36;;;;;;;3.90;2.60;;;;;;;;;;6206711;28;20058;-80
2024/02/11 09:13:38;;;;;;;3.33;2.20;;;;;;;;;;6210322;28;20507;-82
2024/02/11 09:16:42;;;;;;;4.75;2.50;;;;;;;;;;6213147;28;20125;-82
2024/02/11 09:19:44;;;;;;;3.55;2.28;;;;;;;;;;6210169;28;22052;-83
2024/02/11 09:22:46;;;;;;;3.55;2.50;;;;;;;;;;6204323;28;20050;-82
2024/02/11 09:25:48;;;;;;;6.28;3.10;;;;;;;;;;6216278;28;20094;-80
2024/02/11 09:28:49;;;;;;;4.25;2.95;;;;;;;;;;6206953;28;20046;-80
2024/02/11 09:31:52;;;;;;;3.28;2.60;;;;;;;;;;6204751;28;20046;-80
2024/02/11 09:34:54;;;;;;;6.30;3.33;;;;;;;;;;6202597;28;20038;-81
2024/02/11 09:37:55;;;;;;;6.95;3.33;;;;;;;;;;6207135;28;20085;-82
2024/02/11 09:40:57;;;;;;;4.57;3.20;;;;;;;;;;6202987;28;20508;-81
2024/02/11 09:44:04;;;;;;;7.28;3.88;;;;;;;;;;6202294;28;20047;-82
2024/02/11 09:47:08;;;;;;;6.88;3.00;;;;;;;;;;6204393;28;20052;-80
2024/02/11 09:50:11;;;;;;;5.45;3.45;;;;;;;;;;6208808;28;20049;-79
2024/02/11 09:53:13;;;;;;;6.93;3.33;;;;;;;;;;6207597;28;20211;-80
2024/02/11 09:56:16;;;;;;;7.40;3.60;;;;;;;;;;6204263;28;20688;-82
2024/02/11 09:59:17;;;;;;;4.82;3.20;;;;;;;;;;6200460;28;20046;-79
2024/02/11 10:02:19;;;;;;;7.82;3.50;;;;;;;;;;6201895;28;20493;-81
2024/02/11 10:05:24;;;;;;;8.00;3.63;;;;;;;;;;6196434;28;20419;-80
2024/02/11 10:08:26;;;;;;;5.88;3.53;;;;;;;;;;6206973;28;20050;-79
2024/02/11 10:11:28;;;;;;;7.38;3.67;;;;;;;;;;6205195;28;20054;-80
2024/02/11 10:14:31;;;;;;;6.82;3.75;;;;;;;;;;6206236;28;20037;-77
2024/02/11 10:17:32;;;;;;;7.43;3.58;;;;;;;;;;6203792;28;20041;-80
2024/02/11 10:20:35;;;;;;;5.93;3.50;;;;;;;;;;6209736;28;20049;-82
2024/02/11 10:23:40;;;;;;;6.05;3.35;;;;;;;;;;6200558;28;20052;-81
2024/02/11 10:26:49;;;;;;;5.82;3.33;;;;;;;;;;6208396;28;20049;-82
2024/02/11 10:29:51;;;;;;;7.07;3.63;;;;;;;;;;6199999;28;20069;-82
2024/02/11 10:32:59;;;;;;;7.85;3.42;;;;;;;;;;6204109;28;20045;-79
2024/02/11 10:36:03;;;;;;;7.07;3.45;;;;;;;;;;6215434;28;20515;-82
2024/02/11 10:39:05;;;;;;;6.68;3.30;;;;;;;;;;6199900;28;20065;-81
2024/02/11 10:42:17;;;;;;;6.45;3.08;;;;;;;;;;6206294;28;20515;-80
2024/02/11 10:45:19;;;;;;;5.97;3.10;;;;;;;;;;6192658;28;20106;-81
2024/02/11 10:48:24;;;;;;;6.82;3.00;;;;;;;;;;6204516;28;20081;-82
2024/02/11 10:51:31;;;;;;;7.72;2.70;;;;;;;;;;6196714;28;20099;-82
2024/02/11 10:54:43;;;;;;;6.57;2.90;;;;;;;;;;6205807;28;20048;-81
2024/02/11 10:57:49;;;;;;;6.45;3.33;;;;;;;;;;6235907;28;20103;-79
2024/02/11 11:00:52;;;;;;;4.00;2.47;;;;;;;;;;6213122;28;20049;-80
2024/02/11 11:04:00;;;;;;;5.10;2.70;;;;;;;;;;6207921;28;20050;-80
2024/02/11 11:07:02;;;;;;;6.22;2.47;;;;;;;;;;6203256;28;20077;-80
2024/02/11 11:10:10;;;;;;;3.33;2.15;;;;;;;;;;6194266;28;20046;-81
2024/02/11 11:13:15;;;;;;;6.22;2.00;;;;;;;;;;6208167;28;20188;-78
2024/02/11 11:16:23;;;;;;;2.90;1.98;;;;;;;;;;6208134;28;20073;-81
2024/02/11 11:19:24;;;;;;;4.07;2.30;;;;;;;;;;6201166;28;20058;-80
2024/02/11 11:22:28;;;;;;;4.65;2.08;;;;;;;;;;6206520;28;20753;-82
2024/02/11 11:25:34;;;;;;;5.28;2.08;;;;;;;;;;6205680;28;20053;-80
2024/02/11 11:28:42;;;;;;;6.72;2.40;;;;;;;;;;6208360;28;20056;-81
2024/02/11 11:31:47;;;;;;;3.80;1.92;;;;;;;;;;6205213;28;20514;-81
2024/02/11 11:34:53;;;;;;;3.85;2.00;;;;;;;;;;6204522;28;20458;-81
2024/02/11 11:37:58;;;;;;;4.00;1.90;;;;;;;;;;6202062;28;20058;-81
2024/02/11 11:41:00;;;;;;;3.50;1.80;;;;;;;;;;6212919;28;20046;-80
2024/02/11 11:44:02;;;;;;;2.03;1.60;;;;;;;;;;6206724;28;20122;-80
2024/02/11 11:47:07;;;;;;;4.13;1.87;;;;;;;;;;6213459;28;20030;-81
2024/02/11 11:50:09;;;;;;;5.03;2.55;;;;;;;;;;6224455;28;20093;-79
2024/02/11 11:53:19;;;;;;;4.38;1.90;;;;;;;;;;6208163;28;20046;-78
2024/02/11 11:56:23;;;;;;;4.40;2.38;;;;;;;;;;6208027;28;20058;-76
2024/02/11 11:59:26;;;;;;;4.68;2.00;;;;;;;;;;6225076;28;20058;-77
2024/02/11 12:02:30;;;;;;;3.72;2.03;;;;;;;;;;6215695;28;20390;-77
2024/02/11 12:05:32;;;;;;;4.25;1.88;;;;;;;;;;6215758;28;20046;-79
2024/02/11 12:08:35;;;;;;;3.55;1.65;;;;;;;;;;6205144;28;20699;-79
2024/02/11 12:11:48;;;;;;;3.97;1.80;;;;;;;;;;6218511;28;20053;-80
2024/02/11 12:14:50;;;;;;;4.28;1.92;;;;;;;;;;6206599;28;20049;-80
2024/02/11 12:17:58;;;;;;;3.50;1.60;;;;;;;;;;6208103;28;20061;-79
2024/02/11 12:21:00;;;;;;;4.30;1.73;;;;;;;;;;6206749;28;20779;-80
2024/02/11 12:24:08;;;;;;;1.93;1.20;;;;;;;;;;6221348;28;20050;-80
2024/02/11 12:27:17;;;;;;;2.25;1.27;;;;;;;;;;6208341;28;20056;-81
2024/02/11 12:30:23;;;;;;;2.50;1.42;;;;;;;;;;6219856;28;20049;-80
2024/02/11 12:33:25;;;;;;;3.42;1.67;;;;;;;;;;6229194;28;20058;-79
2024/02/11 12:36:27;;;;;;;2.05;1.15;;;;;;;;;;6198370;28;20541;-80
2024/02/11 12:39:32;;;;;;;1.95;1.23;;;;;;;;;;6223343;28;20719;-81
2024/02/11 12:42:35;;;;;;;2.97;1.67;;;;;;;;;;6204364;28;20056;-81
2024/02/11 12:45:37;;;;;;;2.20;1.30;;;;;;;;;;6188731;28;20053;-80
2024/02/11 12:48:40;;;;;;;5.10;2.08;;;;;;;;;;6207688;28;20046;-81
2024/02/11 12:51:46;;;;;;;2.08;1.45;;;;;;;;;;6220548;28;20349;-81
2024/02/11 12:54:48;;;;;;;1.52;1.00;;;;;;;;;;6201592;28;20061;-79
2024/02/11 12:57:51;;;;;;;1.77;1.30;;;;;;;;;;6208257;28;20742;-79
2024/02/11 13:00:56;;;;;;;2.05;1.27;;;;;;;;;;6208320;28;20065;-79
2024/02/11 13:03:59;;;;;;;1.67;1.20;;;;;;;;;;6206185;28;20046;-80
2024/02/11 13:07:00;;;;;;;1.90;1.10;;;;;;;;;;6187373;28;20053;-80
2024/02/11 13:10:03;;;;;;;2.17;1.15;;;;;;;;;;6223202;28;20073;-80
2024/02/11 13:13:05;;;;;;;2.80;1.05;;;;;;;;;;6187278;28;20050;-82
2024/02/11 13:16:07;;;;;;;3.00;1.05;;;;;;;;;;6196029;28;20067;-78
2024/02/11 13:19:11;;;;;;;3.47;1.20;;;;;;;;;;6204392;28;20057;-78
2024/02/11 13:22:15;;;;;;;3.30;1.10;;;;;;;;;;6198682;28;20062;-80
2024/02/11 13:25:19;;;;;;;1.08;0.80;;;;;;;;;;6193065;28;20046;-79
2024/02/11 13:28:21;;;;;;;0.90;0.68;;;;;;;;;;6225350;28;20060;-80
2024/02/11 13:31:24;;;;;;;2.08;1.20;;;;;;;;;;6225308;28;20080;-81
2024/02/11 13:34:28;;;;;;;1.67;0.98;;;;;;;;;;6206463;28;20050;-81
2024/02/11 13:37:30;;;;;;;0.93;0.80;;;;;;;;;;6208600;28;20113;-80
2024/02/11 13:40:32;;;;;;;1.92;0.90;;;;;;;;;;6202310;28;20061;-80
2024/02/11 13:43:34;;;;;;;2.58;0.75;;;;;;;;;;6196321;28;20050;-81
2024/02/11 13:46:35;;;;;;;1.52;1.02;;;;;;;;;;6223368;28;20046;-78
2024/02/11 13:49:37;;;;;;;2.22;0.80;;;;;;;;;;6238759;28;20050;-79
2024/02/11 13:52:43;;;;;;;2.00;0.95;;;;;;;;;;6234793;28;20253;-79
2024/02/11 13:55:45;;;;;;;2.08;0.80;;;;;;;;;;6236474;28;20130;-79
2024/02/11 13:58:47;;;;;;;2.40;1.00;;;;;;;;;;6223933;28;20088;-80
2024/02/11 14:01:50;;;;;;;1.63;1.00;;;;;;;;;;6223361;28;20050;-80
2024/02/11 14:04:56;;;;;;;3.65;0.88;;;;;;;;;;6206798;28;20053;-81
2024/02/11 14:07:58;;;;;;;3.05;1.08;;;;;;;;;;6201322;28;20054;-80
2024/02/11 14:10:59;;;;;;;3.38;1.00;;;;;;;;;;6203729;28;20065;-81
2024/02/11 14:14:05;;;;;;;3.20;1.13;;;;;;;;;;6197929;28;20047;-81
2024/02/11 14:17:07;;;;;;;4.35;1.42;;;;;;;;;;6199896;28;20780;-80
2024/02/11 14:20:11;;;;;;;3.03;1.02;;;;;;;;;;6197246;28;20038;-80
2024/02/11 14:23:13;;;;;;;2.30;1.13;;;;;;;;;;6200813;28;20058;-80
2024/02/11 14:26:16;;;;;;;4.20;1.58;;;;;;;;;;6190063;28;20052;-80
2024/02/11 14:29:18;;;;;;;3.25;1.50;;;;;;;;;;6200485;28;20127;-82
2024/02/11 14:32:21;;;;;;;2.65;1.77;;;;;;;;;;6203626;28;20053;-79
2024/02/11 14:35:24;;;;;;;5.03;1.55;;;;;;;;;;6194335;28;20065;-80
2024/02/11 14:38:28;;;;;;;3.95;1.80;;;;;;;;;;6197560;28;20103;-81
2024/02/11 14:41:30;;;;;;;2.65;1.05;;;;;;;;;;6218520;28;20052;-81
2024/02/11 14:44:33;;;;;;;2.85;1.30;;;;;;;;;;6199975;28;20038;-83
2024/02/11 14:47:36;;;;;;;2.53;1.20;;;;;;;;;;6186115;28;20556;-86
2024/02/11 14:50:38;;;;;;;2.63;0.88;;;;;;;;;;6218074;28;20060;-84
2024/02/11 14:53:42;;;;;;;;;;;;;;;;;;6193890;28;20067;-84
2024/02/11 14:56:45;;;;;;;2.40;1.08;;;;;;;;;;6202814;28;19921;-84
2024/02/11 14:59:48;;;;;;;2.75;1.88;;;;;;;;;;6201439;28;20046;-84
2024/02/11 15:02:50;;;;;;;2.10;1.10;;;;;;;;;;6203978;28;20045;-83
2024/02/11 15:05:51;;;;;;;4.32;1.23;;;;;;;;;;6194465;28;20563;-85
2024/02/11 15:08:54;;;;;;;2.20;1.10;;;;;;;;;;6209545;28;20596;-83
2024/02/11 15:11:56;;;;;;;1.23;0.98;;;;;;;;;;6206758;28;20041;-82
2024/02/11 15:14:59;;;;;;;3.33;1.45;;;;;;;;;;6211226;28;20042;-85
2024/02/11 15:18:01;;;;;;;4.82;1.52;;;;;;;;;;6210921;28;20045;-83
2024/02/11 15:21:03;;;;;;;4.60;1.35;;;;;;;;;;6218325;28;20157;-81
2024/02/11 15:24:06;;;;;;;1.40;1.10;;;;;;;;;;6227619;28;20041;-80
2024/02/11 15:27:08;;;;;;;2.85;1.73;;;;;;;;;;6229414;28;20523;-84
2024/02/11 15:30:14;;;;;;;1.73;1.50;;;;;;;;;;6183956;28;20504;-83
2024/02/11 15:33:16;;;;;;;2.85;1.38;;;;;;;;;;6195758;28;20057;-81
2024/02/11 15:36:18;;;;;;;4.63;1.70;;;;;;;;;;6213248;28;20053;-83
2024/02/11 15:39:22;;;;;;;3.03;1.85;;;;;;;;;;6213557;28;20219;-83
2024/02/11 15:42:26;;;;;;;1.75;0.90;;;;;;;;;;6229555;28;20061;-81
2024/02/11 15:45:28;;;;;;;3.13;1.02;;;;;;;;;;6236045;28;20058;-82
2024/02/11 15:48:31;;;;;;;3.78;1.10;;;;;;;;;;6207539;28;20057;-80
2024/02/11 15:51:34;;;;;;;1.45;0.95;;;;;;;;;;6200345;28;20041;-81
2024/02/11 15:54:44;;;;;;;1.90;1.20;;;;;;;;;;6205493;28;20049;-80
2024/02/11 15:57:46;;;;;;;1.80;0.88;;;;;;;;;;6222010;28;20051;-81
2024/02/11 16:00:48;;;;;;;6.57;2.08;;;;;;;;;;6209268;28;20068;-80
2024/02/11 16:03:50;;;;;;;1.98;1.60;;;;;;;;;;6207968;28;20128;-82
2024/02/11 16:06:54;;;;;;;1.73;0.90;;;;;;;;;;6214153;28;20050;-82
2024/02/11 16:09:56;;;;;;;3.40;0.98;;;;;;;;;;6208966;28;20057;-81
2024/02/11 16:12:58;;;;;;;3.45;1.02;;;;;;;;;;6202956;28;20053;-80
2024/02/11 16:15:59;;;;;;;1.20;1.00;;;;;;;;;;6209855;28;20034;-81
2024/02/11 16:19:01;;;;;;;2.35;1.10;;;;;;;;;;6207576;28;20039;-80
2024/02/11 16:22:04;;;;;;;3.38;1.10;;;;;;;;;;6211221;28;20103;-81
2024/02/11 16:25:06;;;;;;;4.78;1.90;;;;;;;;;;6194145;28;20444;-80
2024/02/11 16:28:07;;;;;;;3.83;1.85;;;;;;;;;;6204102;28;20052;-81
2024/02/11 16:31:12;;;;;;;4.15;1.70;;;;;;;;;;6227053;28;20046;-84
2024/02/11 16:34:14;;;;;;;10.05;4.30;;;;;;;;;;6200364;28;20046;-80
2024/02/11 16:37:17;;;;;;;8.95;5.20;;;;;;;;;;6213945;28;20054;-81
2024/02/11 16:40:19;;;;;;;11.70;6.85;;;;;;;;;;6211165;28;20058;-80
2024/02/11 16:43:21;;;;;;;18.13;8.50;;;;;;;;;;6208140;28;20050;-80
2024/02/11 16:46:23;;;;;;;10.70;5.32;;;;;;;;;;6209514;28;20064;-80
2024/02/11 16:49:26;;;;;;;7.22;4.47;;;;;;;;;;6201832;28;20050;-79
2024/02/11 16:52:29;;;;;;;8.57;4.82;;;;;;;;;;6204949;28;20073;-80
2024/02/11 16:55:31;;;;;;;2.95;2.30;;;;;;;;;;6211887;28;20076;-79
2024/02/11 16:58:33;;;;;;;3.13;1.83;;;;;;;;;;6209223;28;20077;-81
2024/02/11 17:01:35;;;;;;;4.40;1.77;;;;;;;;;;6213732;28;20050;-79
2024/02/11 17:04:38;;;;;;;5.13;2.05;;;;;;;;;;6204767;28;20042;-80
2024/02/11 17:07:40;;;;;;;5.82;2.22;;;;;;;;;;6206314;28;20046;-80
2024/02/11 17:10:41;;;;;;;8.70;4.32;;;;;;;;;;6209832;28;20068;-79
2024/02/11 17:13:43;;;;;;;6.38;3.15;;;;;;;;;;6209381;28;20412;-82
2024/02/11 17:16:47;;;;;;;3.95;1.67;;;;;;;;;;6223971;28;20052;-80
2024/02/11 17:19:49;;;;;;;3.58;1.67;;;;;;;;;;6222141;28;20061;-79
2024/02/11 17:22:56;;;;;;;3.65;1.67;;;;;;;;;;6230743;28;20730;-79
2024/02/11 17:25:58;;;;;;;4.80;1.90;;;;;;;;;;6215917;28;20179;-79
2024/02/11 17:29:00;;;;;;;9.18;4.03;;;;;;;;;;6221223;28;20109;-81
2024/02/11 17:32:02;;;;;;;8.15;4.32;;;;;;;;;;6209768;28;20121;-82
2024/02/11 17:35:14;;;;;;;6.47;3.65;;;;;;;;;;6201694;28;20045;-82
2024/02/11 17:38:16;;;;;;;4.63;2.85;;;;;;;;;;6207346;28;20130;-79
2024/02/11 17:41:19;;;;;;;5.47;3.38;;;;;;;;;;6208966;28;20046;-81
2024/02/11 17:44:21;;;;;;;6.28;3.58;;;;;;;;;;6221862;28;20159;-80
2024/02/11 17:47:23;;;;;;;4.22;2.75;;;;;;;;;;6203801;28;20054;-81
2024/02/11 17:50:25;;;;;;;5.40;3.20;;;;;;;;;;6204950;28;20061;-79
2024/02/11 17:53:30;;;;;;;5.68;2.65;;;;;;;;;;6217146;28;20081;-80
2024/02/11 17:56:44;;;;;;;7.85;3.70;;;;;;;;;;6204677;28;20751;-81
2024/02/11 17:59:46;;;;;;;6.82;3.63;;;;;;;;;;6217490;28;20050;-79
2024/02/11 18:02:52;;;;;;;6.18;3.50;;;;;;;;;;6201022;28;20132;-80
2024/02/11 18:05:54;;;;;;;12.35;5.00;;;;;;;;;;6199124;28;20041;-82
2024/02/11 18:08:57;;;;;;;11.00;6.40;;;;;;;;;;6199751;28;20093;-80
2024/02/11 18:12:01;;;;;;;13.10;7.22;;;;;;;;;;6202167;28;20046;-81
2024/02/11 18:15:07;;;;;;;40.65;16.77;;;;;;;;;;6226009;28;20029;-77